Wilton, ND (58579)

8:55 AM CST on February 08, 2016 (GMT -0600)
136 Ave NW | | Change Station
CLOSE
Current Station
Personal Weather Station
Location: Bismarck, ND
Elevation: 1932 ft
Nearby Weather Stations

Elev 1932 ft 46.95 °N, 100.83 °W | Updated 14 seconds ago

Clear
Clear
21.9 °F
Feels Like 8 °F
N
17.0
Wind Variable Wind from NNW
Gusts 19.9 mph

Today
High -- | Low -- °F
--% Chance of Precip.
Yesterday
High -- | Low -- °F
Precip. -- in
Pressure 30.36 in
Visibility 10.0 miles
Clouds Clear
Windchill 8 °F
Dew Point 12 °F
Humidity 66%
Rainfall 0.00 in
Snow Depth Not available.
7:59 AM 5:55 PM
Waning Crescent, 0% visible
METAR KBIS 081452Z 31014G19KT 10SM CLR M03/M08 A3029 RMK AO2 SLP279 T10281083 51017
Pressure 30.36 in
Visibility 10.0 miles
Clouds Clear
Windchill 8 °F
Dew Point 12 °F
Humidity 66%
Rainfall 0.00 in
Snow Depth Not available.
7:59 AM 5:55 PM
Waning Crescent, 0% visible
METAR KBIS 081452Z 31014G19KT 10SM CLR M03/M08 A3029 RMK AO2 SLP279 T10281083 51017

10-Day Weather Forecast

Almanac

Astronomy

Feb. 08, 2016 Rise Set
Actual Time
Civil Twilight
Nautical Twilight
Astronomical Twilight
Moon
Length of Visible Light
Length of Day
Tomorrow will be .
, % of the Moon is Illuminated

Today's Extremes

State Highs State Lows

Community

WunderPhotos

Upload Photos

1,891,437 photos uploaded!

WunderBlog® & News

Nearby

Air Quality

  Air Quality AQ Index Pollutant
Not available.

Snow Depth

Station Depth Elevation

Earthquake Activity

City Distance Mag. Time & Date
Minimum magnitude displayed is 2.5.

Coastal Water Temperatures

Place Temperature

Stations

Nearby Weather Stations

Station Location Temp. Windchill Dew Point Humidity Wind Precip. Elev Updated Type
                   

Watches & Warnings

There are currently no watches in effect.